EmailTwitter


Observations de surface / Québec / CYQB (71714)

Régions: Québec | Canada | États-Unis | Europe | France | UK | Ailleurs
Station
Affichage
Infos & localisation pour CYQB (71714) | Aide pour décoder les METARs

Observations prises le 2020-02-21 à 03H00 UTC à QUEBEC A, QB (CYQB)

Etat du ciel: quelques nuages.

Température: -19.0 Celsius

Point de rosée: -24.0 Celsius

Humidité relative: 65%

Facteur vent: -26.

Vents: Sud-ouest à 11 km/h ou 6 noeuds.

Pression au niveau moyen de la mer: 103.13 kilopascals.

Calage altimétrique: 103.01 kilopascals ou 30.42 pouces de mercure.

Visibilité horizontale: 15.00 milles terrestres ou 24.00 kilomètres.

Observation METAR:

CYQB 210300Z 24006KT 15SM FEW150 M19/M24 A3042 RMK AC1 AC TR SLP313=